Hauptseite
METAR-TAF:

METAR-TAF

Flughäfen :

Nörvenich, Deutschland

Fliegerhorst Nörvenich

Breite: 50-50N, Länge: 006-40E, Höhe: 118 m

Beobachtung

Neuester Wetterbericht von vor 1 Stunde und 17 Minuten, um 23:20 UTC
Wind 5 kt aus West
Temperatur 6°C
Luftfeuchtigkeit 70%
Luftdruck 1015 hPa
Sichtweite 10 km oder mehr
Leicht bewölkt in der Höhe von 6000 ft
Durchbrochene Bewölkung in der Höhe von 9000 ft

METAR: ETNN 272320Z 28005KT 9999 FEW060 BKN090 06/01 Q1015 BLU

Zeit: 02:37 (00:37 UTC)

Prognose

Neuester Wetterbericht von vor 2 Stunden und 37 Minuten, um 22:00 UTC
Gültige Prognose vom 27 um 23 UTC bis 28 um 08 UTC
Wind 5 kt aus West
Sichtweite 10 km oder mehr
Durchbrochene Bewölkung in der Höhe von 6000 ft

TAF: ETNN 272200Z 2723/2808 27005KT 9999 NSW BKN060 BY ETGL

Wetterbeobachtungen und Prognosen von mehr als 4000 Flughäfen (METAR und TAF Bericht).

Die verfügbaren Stationen werden durch gelbe und rote Markierungen auf der Karte dargestellt.

Führen Sie die Maus auf sie, um den Namen der Station zu sehen.

Darauf klicken, um die Beobachtung von Wetterbeobachtungen und Prognosen zu sehen.

Um die Karte zu ändern : klicken Sie auf den grünen Tasten mit einem schwarzen Kreuz Zum Vergrößern, auf den grünen Button mit einem Gedankenstrich zu verkleinern, oder auf die grünen Pfeile für benachbarte Karten.


METAR-TAF: